• Join FlightAware (Why Join?)
  • Login
  • US Flag 
04:05AM EDT


 

Airport Tracker/Info


-or-


 

Live Flight TrackerFlight Track Log ✈ AAL2054 ✈ 05-Jul-2013 ✈ KORD - KBOS

Flight Track Log - Related Links

Times and Time Zones

All times are in EDT time to prevent confusion due to time zone crossing. See the AAL2054 flight status page for this flight to view local times or setup timezone preferences in your user account.

Time Position Orientation Groundspeed Altitude Reporting Facility
EDT Latitude Longitude Course Direction KTS MPH feet Rate Location/Type
02:06PM 41.9700 -87.8800 180° South 28 32  Level FlightAware
02:07PM 41.9680 -87.8800 180° South 28 32 840 Level FlightAware
02:07PM 41.9690 -87.8810 323° Northwest 36 41 1,200 Level FlightAware
02:07PM 41.9660 -87.8850 225° Southwest 96 110 1,560 Level FlightAware
02:08PM 41.9430 -87.9040 212° Southwest 169 194 1,300 1,920 Climbing FlightAware
02:08PM 41.9250 -87.8830 139° Southeast 211 243 2,200 1,500 Climbing FlightAware
02:08PM 41.9220 -87.8670 104° East 237 273 2,400 2,280 Climbing FlightAware
02:09PM 41.9340 -87.8010 76° East 274 315 4,300 2,280 Climbing FlightAware
02:09PM 41.9400 -87.7670 77° East 278 320 4,700 900 Climbing FlightAware
02:10PM 41.9470 -87.7340 74° East 283 326 4,900 1,620 Climbing FlightAware
02:10PM 41.9640 -87.6970 58° Northeast 288 331 5,900 3,180 Climbing FlightAware
02:11PM 41.9850 -87.6550 56° Northeast 291 335 7,700 3,480 Climbing FlightAware
02:11PM 42.0040 -87.6160 57° Northeast 299 344 9,200 3,540 Climbing FlightAware
02:12PM 42.0330 -87.5590 56° Northeast 308 354 11,400 3,360 Climbing FlightAware
02:12PM 42.0680 -87.4900 56° Northeast 320 368 13,700 2,400 Climbing FlightAware
02:13PM 42.1070 -87.4110 56° Northeast 367 422 15,000 1,860 Climbing FlightAware
02:14PM 42.1490 -87.3260 56° Northeast 401 461 16,400 2,220 Climbing FlightAware
02:14PM 42.1920 -87.2360 57° Northeast 419 482 18,100 2,520 Climbing FlightAware
02:15PM 42.2390 -87.1400 57° Northeast 431 496 20,000 2,460 Climbing FlightAware
02:16PM 42.2780 -87.0370 63° Northeast 439 505 21,700 2,400 Climbing FlightAware
02:16PM 42.2830 -86.9880 82° East 437 503 22,400 2,160 Climbing FlightAware
02:17PM 42.2880 -86.8740 87° East 447 514 23,900 1,980 Climbing FlightAware
02:18PM 42.2920 -86.7530 87° East 458 527 25,300 1,800 Climbing FlightAware
02:18PM 42.2970 -86.6270 87° East 471 542 26,500 1,560 Climbing FlightAware
02:19PM 42.3010 -86.5070 87° East 481 554 27,500 1,380 Climbing FlightAware
02:20PM 42.3060 -86.3900 87° East 491 565 28,400 1,320 Climbing FlightAware
02:20PM 42.3110 -86.2510 87° East 502 578 29,400 1,560 Climbing FlightAware
02:21PM 42.3150 -86.1170 88° East 503 579 30,700 1,860 Climbing FlightAware
02:22PM 42.3200 -85.9430 88° East 501 577 32,500 1,800 Climbing FlightAware
02:23PM 42.3320 -85.8170 83° East 501 577 33,600 1,500 Climbing FlightAware
02:23PM 42.3440 -85.6840 83° East 503 579 34,600 1,380 Climbing FlightAware
02:24PM 42.3550 -85.5530 83° East 501 577 35,600 1,560 Climbing FlightAware
02:25PM 42.3670 -85.4120 83° East 490 564 36,900 960 Climbing FlightAware
02:25PM 42.3760 -85.2960 84° East 485 558 37,000 60 Climbing FlightAware
02:26PM 42.3860 -85.1720 84° East 485 558 37,000  Level FlightAware
02:27PM 42.3970 -85.0380 84° East 486 559 37,000  Level FlightAware
02:28PM 42.4070 -84.9120 84° East 486 559 37,000  Level FlightAware
02:28PM 42.4170 -84.7870 84° East 486 559 37,000  Level FlightAware
02:29PM 42.4270 -84.6600 84° East 487 560 37,000  Level FlightAware
02:30PM 42.4360 -84.5450 84° East 488 562 37,000  Level FlightAware
02:30PM 42.4460 -84.4060 84° East 488 562 37,000  Level FlightAware
02:31PM 42.4530 -84.3140 84° East 489 563 37,000  Level FlightAware
02:32PM 42.4630 -84.1930 84° East 490 564 37,000  Level FlightAware
02:32PM 42.4700 -84.0890 85° East 491 565 37,000  Level FlightAware
02:33PM 42.4810 -83.9350 84° East 493 567 37,000  Level FlightAware
02:34PM 42.4880 -83.8300 85° East 494 568 37,000  Level FlightAware
02:35PM 42.5000 -83.6640 84° East 495 570 37,000  Level FlightAware
02:35PM 42.5090 -83.5240 85° East 495 570 37,000  Level FlightAware
02:36PM 42.5190 -83.3790 85° East 492 566 37,000  Level FlightAware
02:37PM 42.5280 -83.2410 85° East 492 566 37,000  Level FlightAware
02:37PM 42.5350 -83.1270 85° East 491 565 37,000  Level FlightAware
02:38PM 42.5440 -82.9880 85° East 493 567 37,000  Level FlightAware
02:39PM 42.5530 -82.8510 85° East 494 568 37,000  Level FlightAware
02:40PM 42.5600 -82.7360 85° East 495 570 37,000  Level FlightAware
02:40PM 42.5690 -82.5840 85° East 496 571 37,000  Level FlightAware
02:41PM 42.5750 -82.4800 85° East 497 572 37,000  Level FlightAware
02:42PM 42.5830 -82.3390 86° East 496 571 37,000  Level FlightAware
02:43PM 42.5920 -82.1860 85° East 498 573 37,000  Level FlightAware
02:43PM 42.6000 -82.0440 86° East 499 574 37,000  Level FlightAware
02:44PM 42.6060 -81.9290 86° East 500 575 37,000  Level FlightAware
02:46PM 42.6280 -81.4990 86° East 499 574 37,000  Level FlightAware
02:47PM 42.6340 -81.3620 87° East 497 572 37,000  Level FlightAware
02:48PM 42.6400 -81.2430 86° East 493 567 37,000  Level FlightAware
02:48PM 42.6460 -81.1180 86° East 489 563 37,000  Level FlightAware
02:49PM 42.6510 -80.9940 87° East 488 562 37,000  Level FlightAware
02:50PM 42.6560 -80.8920 86° East 488 562 37,000  Level FlightAware
02:50PM 42.6640 -80.7110 86° East 490 564 37,000  Level FlightAware
02:51PM 42.6680 -80.5940 87° East 490 564 37,000  Level FlightAware
02:52PM 42.6740 -80.4650 86° East 490 564 37,000  Level FlightAware
02:52PM 42.6790 -80.3350 87° East 491 565 37,000  Level FlightAware
02:53PM 42.6840 -80.2030 87° East 491 565 37,000  Level FlightAware
02:54PM 42.6890 -80.0750 87° East 492 566 37,000  Level FlightAware
02:54PM 42.6920 -79.9700 88° East 492 566 37,000  Level FlightAware
02:55PM 42.6970 -79.8510 87° East 492 566 37,000  Level FlightAware
02:56PM 42.7010 -79.7240 88° East 493 567 37,000  Level FlightAware
02:56PM 42.7050 -79.5980 87° East 493 567 37,000  Level FlightAware
02:57PM 42.7090 -79.4680 88° East 493 567 37,000  Level FlightAware
02:58PM 42.7130 -79.3530 87° East 492 566 37,000  Level FlightAware
02:59PM 42.7170 -79.2090 88° East 490 564 37,000  Level FlightAware
02:59PM 42.7210 -79.0740 88° East 486 559 37,000  Level FlightAware
02:59PM 42.7220 -79.0430 87° East 486 559 37,000  Level FlightAware
03:01PM 42.7280 -78.8270 88° East 485 558 37,000  Level FlightAware
03:01PM 42.7320 -78.6660 88° East 484 557 37,000  Level FlightAware
03:02PM 42.7340 -78.5480 89° East 484 557 37,000  Level FlightAware
03:03PM 42.7370 -78.4140 88° East 483 556 37,000  Level FlightAware
03:04PM 42.7400 -78.2930 88° East 483 556 37,000  Level FlightAware
03:04PM 42.7430 -78.1590 88° East 485 558 37,000  Level FlightAware
03:05PM 42.7450 -78.0400 89° East 486 559 37,000  Level FlightAware
03:06PM 42.7470 -77.9120 89° East 488 562 37,000  Level FlightAware
03:06PM 42.7500 -77.7920 88° East 489 563 37,000  Level FlightAware
03:07PM 42.7520 -77.6580 89° East 491 565 37,000  Level FlightAware
03:08PM 42.7540 -77.5400 89° East 492 566 37,000  Level FlightAware
03:08PM 42.7550 -77.4220 89° East 491 565 37,000  Level FlightAware
03:09PM 42.7570 -77.2930 89° East 488 562 37,000  Level FlightAware
03:10PM 42.7590 -77.1670 89° East 488 562 37,000  Level FlightAware
03:10PM 42.7600 -77.0300 89° East 488 562 37,000  Level FlightAware
03:11PM 42.7610 -76.9230 89° East 486 559 37,000  Level FlightAware
03:12PM 42.7620 -76.7790 89° East 482 555 37,000  Level FlightAware
03:12PM 42.7630 -76.6720 89° East 481 554 37,000  Level FlightAware
03:13PM 42.7640 -76.5520 89° East 480 552 37,000  Level FlightAware
03:14PM 42.7640 -76.4210 90° East 478 550 37,000  Level FlightAware
03:14PM 42.7650 -76.3280 89° East 476 548 37,000  Level FlightAware
03:16PM 42.7660 -75.9970 90° East 470 541 37,000  Level FlightAware
03:17PM 42.7660 -75.8810 90° East 469 540 37,000  Level FlightAware
03:18PM 42.7660 -75.7510 90° East 468 539 37,000  Level FlightAware
03:18PM 42.7650 -75.6220 91° East 469 540 37,000  Level FlightAware
03:19PM 42.7650 -75.5090 90° East 469 540 37,000  Level FlightAware
03:20PM 42.7650 -75.3830 90° East 472 543 37,000  Level FlightAware
03:20PM 42.7640 -75.2620 91° East 474 545 37,000  Level FlightAware
03:21PM 42.7640 -75.1370 90° East 475 547 37,000  Level FlightAware
03:22PM 42.7570 -75.0120 94° East 473 544 37,000  Level FlightAware
03:22PM 42.7500 -74.8990 95° East 473 544 37,000  Level FlightAware
03:23PM 42.7420 -74.7580 94° East 472 543 37,000  Level FlightAware
03:24PM 42.7340 -74.6330 95° East 472 543 37,000  Level FlightAware
03:25PM 42.7260 -74.5080 95° East 472 543 37,000  Level FlightAware
03:25PM 42.7180 -74.3850 95° East 472 543 37,000  Level FlightAware
03:26PM 42.7100 -74.2560 95° East 472 543 37,000  Level FlightAware
03:27PM 42.7020 -74.1320 95° East 473 544 37,000  Level FlightAware
03:27PM 42.6940 -74.0130 95° East 474 545 37,000  Level FlightAware
03:28PM 42.6860 -73.8910 95° East 476 548 37,000  Level FlightAware
03:29PM 42.6780 -73.7810 96° East 477 549 37,000 -480 Level FlightAware
03:29PM 42.6700 -73.6580 95° East 475 547 36,400 -540 Descending FlightAware
03:30PM 42.6620 -73.5320 95° East 475 547 36,300 -1,020 Descending FlightAware
03:31PM 42.6500 -73.3790 96° East 487 560 34,900 -1,500 Descending FlightAware
03:32PM 42.6400 -73.2450 96° East 489 563 34,200 -1,680 Descending FlightAware
03:33PM 42.6260 -73.0560 96° East 491 565 32,000 -2,460 Descending FlightAware
03:33PM 42.6160 -72.9280 96° East 492 566 30,000 -1,920 Descending FlightAware
03:34PM 42.6080 -72.8150 95° East 490 564 29,400 -2,580 Descending FlightAware
03:35PM 42.5960 -72.6800 97° East 477 549 26,500 -3,360 Descending FlightAware
03:35PM 42.5870 -72.5590 96° East 470 541 24,800 -2,520 Descending FlightAware
03:36PM 42.5760 -72.4300 97° East 461 531 22,900 -2,580 Descending FlightAware
03:37PM 42.5670 -72.3170 96° East 452 520 21,200 -2,580 Descending FlightAware
03:37PM 42.5590 -72.2150 96° East 444 511 19,700 -2,400 Descending FlightAware
03:38PM 42.5490 -72.0970 97° East 434 499 18,000 -2,460 Descending FlightAware
03:39PM 42.5390 -71.9850 97° East 425 489 16,200 -2,520 Descending FlightAware
03:39PM 42.5310 -71.9000 97° East 419 482 14,900 -2,460 Descending FlightAware
03:40PM 42.5230 -71.8170 97° East 412 474 13,600 -2,400 Descending FlightAware
03:41PM 42.5220 -71.6760 91° East 385 443 11,400 -2,220 Descending FlightAware
03:41PM 42.5280 -71.5940 84° East 365 420 10,200 -1,500 Descending FlightAware
03:42PM 42.5330 -71.5290 84° East 330 380 9,800 -1,320 Descending FlightAware
03:42PM 42.5370 -71.4770 84° East 323 372 9,000 -1,560 Descending FlightAware
03:43PM 42.5410 -71.4140 85° East 314 361 8,300 -1,320 Descending FlightAware
03:43PM 42.5450 -71.3600 84° East 311 358 7,700 -1,440 Descending FlightAware
03:44PM 42.5480 -71.3060 86° East 307 353 7,000 -1,440 Descending FlightAware
03:44PM 42.5490 -71.2940 84° East 306 352 6,900 -1,320 Descending FlightAware
03:44PM 42.5520 -71.2450 85° East 303 349 6,300 -1,080 Descending FlightAware
03:46PM 42.5650 -71.0570 85° East 246 283 4,500 -1,020 Descending FlightAware
03:46PM 42.5660 -71.0430 84° East 244 281 4,300 -1,320 Descending FlightAware
03:47PM 42.5610 -70.9780 96° East 227 261 3,300 -1,200 Descending FlightAware
03:48PM 42.5370 -70.9540 144° Southeast 207 238 2,800 -780 Descending FlightAware
03:48PM 42.5140 -70.9480 169° South 195 224 2,600 -600 Descending FlightAware
03:48PM 42.5010 -70.9460 174° South 192 221 2,400 -900 Descending FlightAware
03:49PM 42.4780 -70.9500 187° South 181 208 2,000 -1,020 Descending FlightAware
03:49PM 42.4570 -70.9590 198° South 156 180 1,500 -900 Descending FlightAware
03:49PM 42.4500 -70.9630 203° Southwest 139 160 1,400 -780 Descending FlightAware
03:50PM 42.4320 -70.9730 202° Southwest 127 146 1,000 -720 Descending FlightAware
03:50PM 42.4150 -70.9810 199° South 133 153 700 -660 Descending FlightAware
03:51PM 42.4010 -70.9880 200° South 121 139 400 -660 Descending FlightAware
03:51PM 42.3820 -70.9970 199° South 137 158 100 -360 Descending FlightAware
03:52PM 42.3680 -71.0040 200° South 137 158 100  Level FlightAware